Wednesday, October 18, 2017, 3:42 AM EDT
Back to Local

KFKL, Franklin, Venango Regional Airport

Location: Franklin, PA, United States Lat: 41.383
Local Time: 3:42 AM EDT ( 7:42 GMT) Lon: -79.867
Time Zone: US/Eastern Elev: 1538 ft

Show me the last for .
Show Decoded

2017-10-18 02:56 METAR KFKL 180656Z AUTO 21006KT 10SM CLR 07/03 A3029 RMK AO2 SLP263 T00670033 =
2017-10-18 01:56 METAR KFKL 180556Z AUTO 20005KT 10SM CLR 08/03 A3030 RMK AO2 SLP263 6////
                 T00780033 10117 20078 51009 =
2017-10-18 00:56 METAR KFKL 180456Z AUTO 21004KT 10SM CLR 09/03 A3029 RMK AO2 SLP261 T00940033
                 401611006 =
2017-10-17 23:56 METAR KFKL 180356Z AUTO 22006KT 10SM CLR 09/03 A3028 RMK AO2 SLPNO T00940033 =
2017-10-17 22:56 METAR KFKL 180256Z AUTO 22008KT 10SM CLR 10/03 A3027 RMK AO2 SLPNO T01000033
                 51009 =
2017-10-17 21:56 METAR KFKL 180156Z AUTO 22007KT 10SM CLR 11/03 A3026 RMK AO2 SLPNO T01060033 =
2017-10-17 20:56 METAR KFKL 180056Z AUTO 22007KT 10SM CLR 11/03 A3025 RMK AO2 SLPNO T01110033 =
2017-10-17 19:56 METAR KFKL 172356Z AUTO 23007KT 10SM CLR 11/03 A3024 RMK AO2 SLPNO T01110033
                 10161 20111 53003 =
2017-10-17 18:56 METAR KFKL 172256Z AUTO 21006KT 10SM CLR 12/03 A3023 RMK AO2 SLPNO T01170028 =
2017-10-17 17:56 METAR KFKL 172156Z AUTO 22008KT 10SM CLR 14/03 A3023 RMK AO2 SLPNO T01440033 =
2017-10-17 16:56 METAR KFKL 172056Z AUTO 23010KT 10SM CLR 16/03 A3023 RMK AO2 SLPNO T01560028
                 56015 =
2017-10-17 14:56 METAR KFKL 171856Z AUTO 21013G19KT 10SM CLR 15/04 A3025 RMK AO2 SLPNO T01500039
                 =
2017-10-17 13:56 METAR KFKL 171756Z AUTO 25009G18KT 10SM CLR 14/03 A3027 RMK AO2 SLPNO 6////
                 T01440033 =
2017-10-17 12:56 METAR KFKL 171656Z AUTO 25013G17KT 10SM CLR 14/03 A3029 RMK AO2 SLPNO T01390028
                 =
2017-10-17 11:56 METAR KFKL 171556Z AUTO 22008KT 10SM CLR 12/03 A3031 RMK AO2 SLP273 T01220028 =
2017-10-17 10:56 METAR KFKL 171456Z AUTO 22008KT 10SM CLR 10/02 A3033 RMK AO2 SLP279 T01000022
                 50000 =
2017-10-17 09:56 METAR KFKL 171356Z AUTO 22006KT 10SM CLR 07/02 A3034 RMK AO2 SLP284 T00720022
                 TSNO =
2017-10-17 08:56 METAR KFKL 171256Z AUTO 21004KT 10SM CLR 03/03 A3034 RMK AO2 SLP285 T00330028 =
2017-10-17 07:56 METAR KFKL 171156Z AUTO 20006KT 10SM CLR M01/M01 A3033 RMK AO2 SLP284 7////
                 T10061011 10017 21006 51007 FZRANO =
2017-10-17 06:56 METAR KFKL 171056Z AUTO 20005KT 10SM CLR M01/M01 A3032 RMK AO2 SLP282 T10061011
                 FZRANO =
2017-10-17 05:56 METAR KFKL 170956Z AUTO 20003KT 10SM CLR 00/M01 A3032 RMK AO2 SLP277 T00001011
                 FZRANO =
2017-10-17 04:56 METAR KFKL 170856Z AUTO 17003KT 10SM CLR 01/M01 A3030 RMK AO2 SLP273 T00061006
                 53006 FZRANO =
2017-10-17 03:56 METAR KFKL 170756Z AUTO 22003KT 10SM CLR 01/00 A3030 RMK AO2 SLP270 T00060000
                 FZRANO =

Support USWX by starting your Amazon purchase here.